Terminal Aerodrome Forecast
Issued by NWS Wakefield, VA

Home | Current Version | Previous Version | Text Only | Print | Product List | Glossary On
Versions: 1 2 3 4 5 6 7 8 9 10 11 12 13 14 15 16 17 18 19 20 21 22 23 24
000
FTUS41 KAKQ 231132
TAFRIC
TAF
KRIC 231132Z 2312/2412 03008KT P6SM VCSH SCT007 SCT012 OVC025
      TEMPO 2312/2314 BKN007
     FM231800 08007KT 4SM -SHRA SCT020 BKN035
     FM232200 07009KT 4SM SHRA OVC015
     FM240500 03008KT 6SM -SHRA OVC007=

USA.gov is the U.S. government's official web portal to all federal, state and local government web resources and services.